• Join FlightAware (Why Join?)
  • Login
  • US Flag 
05:11AM EDT


 

Airport Tracker/Info


-or-


 

Live Flight TrackerFlight Track Log ✈ N237WC ✈ 09-May-2013 ✈ KFCM - KRAP

Flight Track Log - Related Links

Times and Time Zones

All times are in EDT time to prevent confusion due to time zone crossing. See the N237WC flight status page for this flight to view local times or setup timezone preferences in your user account.

Time Position Orientation Groundspeed Altitude Reporting Facility
EDT Latitude Longitude Course Direction KTS MPH feet Rate Location/Type
06:08PM 44.8000 -93.4167 282° West 221 254 2,500  Level Minneapolis TRACON
06:09PM 44.7803 -93.5094 253° West 248 285 4,000 1,800 Climbing Minneapolis Center
06:10PM 44.8325 -93.5953 311° West 240 276 6,600 2,640 Climbing Minneapolis Center
06:12PM 44.8700 -93.6747 304° West 243 280 9,500 2,400 Climbing Minneapolis Center
06:13PM 44.9064 -93.7525 303° West 240 276 11,700 1,980 Climbing Minneapolis Center
06:14PM 44.9630 -93.7261 282° West  Level FlightAware Approximate
06:14PM 44.9444 -93.8344 303° West 248 285 13,700  Level Minneapolis Center
06:15PM 44.9831 -93.9169 304° West 253 291 15,300 1,500 Climbing Minneapolis Center
06:16PM 45.0206 -94.0036 301° West 262 302 16,900 1,560 Climbing Minneapolis Center
06:17PM 45.0361 -94.1247 280° West 263 303 18,600 1,500 Climbing Minneapolis Center
06:18PM 45.0239 -94.2317 261° West 273 314 20,100 1,440 Climbing Minneapolis Center
06:19PM 45.0153 -94.3369 263° West 272 313 21,600 1,320 Climbing Minneapolis Center
06:20PM 45.0081 -94.4428 265° West 271 312 22,900 1,200 Climbing Minneapolis Center
06:21PM 44.9997 -94.5492 264° West 274 315 24,100 1,200 Climbing Minneapolis Center
06:22PM 44.9900 -94.6775 264° West 280 322 25,400 1,080 Climbing Minneapolis Center
06:23PM 44.9825 -94.7881 265° West 283 326 26,400 900 Climbing Minneapolis Center
06:24PM 44.9742 -94.9000 264° West 286 329 27,300 780 Climbing Minneapolis Center
06:25PM 44.9644 -95.0108 263° West 287 330 28,100 720 Climbing Minneapolis Center
06:26PM 44.9553 -95.1244 264° West 291 335 28,800 660 Climbing Minneapolis Center
06:27PM 44.9447 -95.2633 264° West 297 342 29,500 540 Climbing Minneapolis Center
06:28PM 44.9350 -95.3803 263° West 300 345 30,000 240 Climbing Minneapolis Center
06:29PM 44.9258 -95.5022 264° West 311 358 30,000  Level Minneapolis Center
06:30PM 44.9153 -95.6289 263° West 321 369 30,000  Level Minneapolis Center
06:31PM 44.9047 -95.7581 263° West 330 380 30,000  Level Minneapolis Center
06:32PM 44.8919 -95.9147 263° West 337 388 30,000  Level Minneapolis Center
06:33PM 44.8803 -96.0442 263° West 336 387 30,000  Level Minneapolis Center
06:34PM 44.8697 -96.1736 263° West 337 388 30,000  Level Minneapolis Center
06:35PM 44.8581 -96.3017 263° West 334 384 30,000  Level Minneapolis Center
06:36PM 44.8461 -96.4306 263° West 334 384 30,000  Level Minneapolis Center
06:37PM 44.8322 -96.5864 263° West 337 388 30,000  Level Minneapolis Center
06:38PM 44.8200 -96.7153 262° West 335 386 30,000  Level Minneapolis Center
06:39PM 44.8092 -96.8439 263° West 334 384 30,000  Level Minneapolis Center
06:41PM 44.7956 -96.9706 261° West 331 381 30,000  Level Minneapolis Center
06:42PM 44.7844 -97.0981 263° West 330 380 30,000  Level Minneapolis Center
06:43PM 44.7692 -97.2503 262° West 329 379 30,000  Level Minneapolis Center
06:44PM 44.7567 -97.3769 262° West 328 377 30,000  Level Minneapolis Center
06:45PM 44.7442 -97.5047 262° West 329 379 30,000  Level Minneapolis Center
06:46PM 44.7325 -97.6314 263° West 330 380 30,000  Level Minneapolis Center
06:47PM 44.7197 -97.7575 262° West 328 377 30,000  Level Minneapolis Center
06:48PM 44.7069 -97.8844 262° West 330 380 30,000  Level Minneapolis Center
06:49PM 44.6903 -98.0356 261° West 327 376 30,000  Level Minneapolis Center
06:50PM 44.6778 -98.1628 262° West 329 379 30,000  Level Minneapolis Center
06:51PM 44.6633 -98.2892 261° West 329 379 30,000  Level Minneapolis Center
06:52PM 44.6489 -98.4261 262° West 330 380 30,000  Level Minneapolis Center
06:53PM 44.6350 -98.5539 261° West 331 381 30,000  Level Minneapolis Center
06:54PM 44.6203 -98.6803 261° West 330 380 30,000  Level Minneapolis Center
06:55PM 44.6067 -98.8078 262° West 329 379 30,000  Level Minneapolis Center
06:56PM 44.5925 -98.9342 261° West 328 377 30,000  Level Minneapolis Center
06:57PM 44.5744 -99.0861 261° West 328 377 30,000  Level Minneapolis Center
06:58PM 44.5603 -99.2136 261° West 330 380 30,000  Level Minneapolis Center
06:59PM 44.5458 -99.3397 261° West 328 377 30,000  Level Minneapolis Center
07:00PM 44.5303 -99.4656 260° West 327 376 30,000  Level Minneapolis Center
07:01PM 44.5158 -99.5922 261° West 328 377 30,000  Level Minneapolis Center
07:02PM 44.5003 -99.7186 260° West 328 377 30,000  Level Minneapolis Center
07:03PM 44.4844 -99.8450 260° West 329 379 30,000  Level Minneapolis Center
07:04PM 44.4667 -99.9967 261° West 328 377 30,000  Level Minneapolis Center
07:05PM 44.4511 -100.1233 260° West 329 379 30,000  Level Minneapolis Center
07:06PM 44.4342 -100.2511 260° West 331 381 30,000  Level Minneapolis Center
07:07PM 44.4189 -100.3761 260° West 328 377 30,000 -180 Level Minneapolis Center
07:08PM 44.4036 -100.5031 260° West 330 380 29,700 -660 Descending Minneapolis Center
07:09PM 44.3861 -100.6353 260° West 339 390 28,700 -1,200 Descending Minneapolis Center
07:11PM 44.3683 -100.7686 259° West 346 398 27,300 -1,380 Descending Minneapolis Center
07:12PM 44.3475 -100.9322 260° West 353 406 25,900 -1,260 Descending Minneapolis Center
07:13PM 44.3308 -101.0669 260° West 353 406 24,800 -960 Descending Minneapolis Center
07:14PM 44.3133 -101.1967 259° West 349 402 24,000 -420 Descending Minneapolis Center
07:15PM 44.2967 -101.3247 260° West 343 395 24,000  Level Minneapolis Center
07:16PM 44.2808 -101.4444 260° West 331 381 24,000 -420 Level Minneapolis Center
07:17PM 44.2647 -101.5650 259° West 322 371 23,200 -1,260 Descending Minneapolis Center
07:18PM 44.2436 -101.7133 259° West 322 371 21,500 -1,500 Descending Minneapolis Center
07:19PM 44.2256 -101.8372 259° West 324 373 20,100 -1,380 Descending Minneapolis Center
07:20PM 44.2089 -101.9622 260° West 326 375 18,700 -1,380 Descending Minneapolis Center
07:21PM 44.1903 -102.0744 257° West 309 356 17,400 -1,320 Descending Denver Center
07:21PM 44.1889 -102.1044 266° West 304 350 17,100 -1,380 Descending Denver Center
07:22PM 44.1736 -102.1861 255° West 299 344 16,000 -1,620 Descending Denver Center
07:22PM 44.1706 -102.2194 263° West 297 342 15,500 -1,500 Descending Denver Center
07:23PM 44.1592 -102.2922 258° West 284 327 14,500 -1,440 Descending Denver Center
07:24PM 44.1417 -102.4203 259° West 257 296 12,700 -1,560 Descending Denver Center
07:25PM 44.1281 -102.5131 258° West 235 270 11,100 -1,440 Descending Denver Center
07:26PM 44.1144 -102.6056 258° West 250 288 9,800 -1,200 Descending Denver Center
07:27PM 44.0939 -102.7092 255° West 263 303 8,700 -1,200 Descending Denver Center
07:28PM 44.0711 -102.7983 250° West 256 295 7,500 -1,440 Descending Denver Center
07:29PM 44.0444 -102.8917 248° West 250 288 5,900 -1,320 Descending Denver Center
07:30PM 44.0117 -102.9717 240° Southwest 198 228 4,700 -1,020 Descending Denver Center
07:31PM 44.0053 -103.0294 261° West 154 177 3,800 -900 Descending Denver Center
07:33PM 44.0333 -103.0500 270° West  Level FlightAware Approximate
07:40PM 44.0453 -103.0574 270° West  Level Estimated
07:41PM 44.0453 -103.0574 270° West  Level Estimated